Time;durP1;ratioP1;P1;durP2;ratioP2;P2;SDS_P1;SDS_P2;PMS_P1;PMS_P2;Temp;Humidity;BMP_temperature;BMP_pressure;BME280_temperature;BME280_humidity;BME280_pressure;Samples;Min_cycle;Max_cycle;Signal;HPM_P1;HPM_P2
2021/12/24 00:01:25;;;;;;;37.10;15.07;;;;;;;-2.08;100.00;60590.00;5071610;28;20458;-75
2021/12/24 00:03:52;;;;;;;35.90;16.30;;;;;;;-3.28;100.00;60466.28;5070611;28;20473;-73
2021/12/24 00:06:22;;;;;;;38.17;16.37;;;;;;;-1.94;100.00;60609.25;5071705;28;20504;-76
2021/12/24 00:08:53;;;;;;;29.40;13.27;;;;;;;-3.28;100.00;60461.28;5071477;28;20915;-77
2021/12/24 00:11:21;;;;;;;42.43;16.80;;;;;;;-1.88;100.00;60608.66;5072069;28;20477;-75
2021/12/24 00:13:50;;;;;;;43.30;17.67;;;;;;;-2.96;100.00;60500.06;5071549;28;20443;-73
2021/12/24 00:16:23;;;;;;;41.13;16.90;;;;;;;-2.10;100.00;60584.84;5071538;28;20454;-73
2021/12/24 00:18:56;;;;;;;37.47;16.13;;;;;;;-3.37;100.00;60456.75;5071709;28;20964;-75
2021/12/24 00:35:15;;;;;;;42.60;17.37;;;;;;;-1.91;100.00;60604.94;5071708;28;20514;-76
2021/12/24 00:37:48;;;;;;;49.57;19.10;;;;;;;-1.87;100.00;60609.19;5071329;28;20454;-75
2021/12/24 00:40:18;;;;;;;46.07;19.93;;;;;;;-1.86;100.00;60613.25;5074151;28;20445;-74
2021/12/24 00:43:00;;;;;;;51.60;19.50;;;;;;;-1.66;100.00;60636.38;5076958;28;20538;-74
2021/12/24 00:45:33;;;;;;;47.70;18.97;;;;;;;-1.68;100.00;60631.75;5073827;28;20961;-74
2021/12/24 00:48:02;;;;;;;36.10;15.87;;;;;;;-1.77;100.00;60625.25;5071630;28;20525;-74
2021/12/24 00:50:46;;;;;;;35.40;16.03;;;;;;;-1.80;100.00;60619.59;5073890;28;20446;-72
2021/12/24 00:55:56;;;;;;;39.17;17.00;;;;;;;-2.10;100.00;60584.84;5072173;28;20486;-74
2021/12/24 00:58:24;;;;;;;43.27;18.07;;;;;;;-1.88;100.00;60613.09;5071594;28;20532;-74
2021/12/24 01:00:52;;;;;;;47.17;18.10;;;;;;;-1.96;100.00;60599.66;5070987;28;20443;-74
2021/12/24 01:03:24;;;;;;;64.37;26.90;;;;;;;-2.00;100.00;60600.41;5071282;28;20455;-74
2021/12/24 01:05:52;;;;;;;82.40;32.43;;;;;;;-3.35;100.00;60458.88;5071024;28;20443;-75
2021/12/24 01:08:22;;;;;;;81.23;30.23;;;;;;;-2.09;100.00;60588.41;5071222;28;21012;-75
2021/12/24 01:10:54;;;;;;;68.80;30.03;;;;;;;-1.92;100.00;60608.88;5071317;28;20529;-74
2021/12/24 01:13:23;;;;;;;51.23;21.80;;;;;;;-2.36;100.00;60562.38;5071491;28;21035;-76
2021/12/24 01:15:58;;;;;;;53.07;20.40;;;;;;;-3.62;100.00;60425.41;5071087;28;20451;-75
2021/12/24 01:18:35;;;;;;;47.70;20.67;;;;;;;-2.14;100.00;60580.63;5070955;28;20458;-75
2021/12/24 01:21:18;;;;;;;48.90;20.47;;;;;;;-2.13;100.00;60581.69;5071162;28;20447;-74
2021/12/24 01:23:53;;;;;;;45.43;19.63;;;;;;;-2.04;100.00;60596.19;5072178;28;20457;-74
2021/12/24 01:26:33;;;;;;;51.60;19.50;;;;;;;-2.06;100.00;60589.63;5074739;28;20429;-73
2021/12/24 01:29:30;;;;;;;48.73;18.80;;;;;;;-4.04;100.00;60386.06;5074580;28;20486;-75
2021/12/24 01:40:23;;;;;;;41.57;18.87;;;;;;;-1.99;100.00;60602.00;5074484;28;20534;-75
2021/12/24 01:42:52;;;;;;;38.93;16.73;;;;;;;-2.00;100.00;60598.44;5074685;28;20450;-73
2021/12/24 01:45:23;;;;;;;40.43;18.70;;;;;;;-3.77;100.00;60424.50;5073835;28;20515;-75
2021/12/24 01:47:55;;;;;;;44.27;19.27;;;;;;;-2.59;100.00;60541.63;5074142;28;20846;-75
2021/12/24 01:50:25;;;;;;;44.37;18.23;;;;;;;-2.04;100.00;60596.19;5074329;28;20941;-75
2021/12/24 01:52:55;;;;;;;39.73;18.37;;;;;;;-2.03;100.00;60594.75;5073813;28;20537;-73
2021/12/24 01:55:25;;;;;;;43.00;18.27;;;;;;;-2.11;100.00;60586.31;5073963;28;20519;-75
2021/12/24 01:57:55;;;;;;;45.80;17.83;;;;;;;-2.12;100.00;60580.25;5072993;28;20442;-73
2021/12/24 02:00:26;;;;;;;40.90;18.17;;;;;;;-3.76;100.00;60415.63;5074358;28;20480;-72
2021/12/24 02:02:55;;;;;;;39.17;17.23;;;;;;;-3.52;100.00;60440.94;5073483;28;20881;-76
2021/12/24 02:05:23;;;;;;;36.87;17.03;;;;;;;-2.03;100.00;60592.25;5073754;28;20508;-76
2021/12/24 02:07:54;;;;;;;38.90;18.10;;;;;;;-1.98;100.00;60598.06;5073767;28;20442;-75
2021/12/24 02:10:25;;;;;;;39.17;17.87;;;;;;;-2.12;100.00;60588.25;5074196;28;20430;-74
2021/12/24 02:12:54;;;;;;;43.20;19.30;;;;;;;-2.13;100.00;60584.19;5073885;28;20434;-74
2021/12/24 02:15:30;;;;;;;38.57;17.30;;;;;;;-2.17;100.00;60577.47;5073948;28;20447;-74
2021/12/24 02:28:58;;;;;;;48.50;19.37;;;;;;;-2.36;100.00;60562.38;5073841;28;20558;-76
2021/12/24 02:31:28;;;;;;;52.53;22.77;;;;;;;-2.26;100.00;60567.94;5073414;28;21044;-75
2021/12/24 02:33:56;;;;;;;81.73;37.63;;;;;;;-2.33;100.00;60560.56;5073273;28;20462;-75
2021/12/24 02:36:24;;;;;;;59.97;28.47;;;;;;;-2.62;100.00;60530.97;5073367;28;20446;-76
2021/12/24 02:38:52;;;;;;;65.37;24.73;;;;;;;-2.50;100.00;60548.09;5072868;28;20506;-74
2021/12/24 02:41:27;;;;;;;44.73;19.40;;;;;;;-3.71;100.00;60420.88;5065993;28;20450;-75
2021/12/24 02:43:54;;;;;;;70.90;28.27;;;;;;;-2.51;100.00;60541.53;5073258;28;20434;-73
2021/12/24 02:46:29;;;;;;;54.90;22.90;;;;;;;-4.01;100.00;60384.25;5072966;28;20512;-75
2021/12/24 02:49:04;;;;;;;45.47;20.07;;;;;;;-4.35;100.00;60353.91;5072981;28;20482;-73
2021/12/24 02:54:20;;;;;;;47.47;20.93;;;;;;;-2.83;100.00;60513.25;5073817;28;20425;-74
2021/12/24 02:56:51;;;;;;;51.63;21.80;;;;;;;-2.75;100.00;60522.22;5076215;28;20473;-74
2021/12/24 02:59:24;;;;;;;48.60;22.27;;;;;;;-3.74;100.00;60408.28;5077026;28;20933;-74
2021/12/24 03:01:55;;;;;;;51.87;23.10;;;;;;;-2.69;100.00;60528.56;5072883;28;20836;-74
2021/12/24 03:04:27;;;;;;;48.20;21.43;;;;;;;-2.74;100.00;60517.78;5072929;28;20450;-73
2021/12/24 03:06:57;;;;;;;56.17;22.83;;;;;;;-2.86;100.00;60515.06;5073243;28;20446;-74
2021/12/24 03:09:28;;;;;;;57.50;23.13;;;;;;;-2.72;100.00;60520.41;5072775;28;20493;-75
2021/12/24 03:11:55;;;;;;;50.50;22.40;;;;;;;-3.93;100.00;60402.66;5072682;28;20470;-75
2021/12/24 03:14:23;;;;;;;49.90;22.43;;;;;;;-3.08;100.00;60482.41;5072882;28;20448;-74
2021/12/24 03:16:57;;;;;;;47.80;22.07;;;;;;;-4.05;100.00;60380.56;5072133;28;20454;-74
2021/12/24 03:19:31;;;;;;;49.40;22.10;;;;;;;-2.73;100.00;60524.34;5072643;28;20451;-74
2021/12/24 03:22:13;;;;;;;49.80;22.00;;;;;;;-2.80;100.00;60511.44;5072464;28;20988;-75
2021/12/24 03:24:41;;;;;;;44.07;20.13;;;;;;;-2.81;100.00;60515.88;5072587;28;20478;-74
2021/12/24 03:27:11;;;;;;;44.13;20.30;;;;;;;-3.07;100.00;60483.44;5072310;28;20969;-73
2021/12/24 03:29:40;;;;;;;41.73;20.57;;;;;;;-3.14;100.00;60483.53;5072243;28;20563;-75
2021/12/24 03:32:09;;;;;;;48.93;22.07;;;;;;;-4.47;100.00;60336.81;5072459;28;20438;-73
2021/12/24 03:34:46;;;;;;;47.83;20.77;;;;;;;-3.16;100.00;60473.41;5072136;28;20497;-73
2021/12/24 03:37:15;;;;;;;44.33;21.27;;;;;;;-3.20;100.00;60469.72;5072583;28;20438;-76
2021/12/24 03:39:44;;;;;;;52.97;23.30;;;;;;;-3.17;100.00;60477.88;5071960;28;20541;-74
2021/12/24 03:42:12;;;;;;;48.63;22.43;;;;;;;-3.23;100.00;60466.56;5072204;28;20488;-74
2021/12/24 03:44:44;;;;;;;55.93;24.17;;;;;;;-3.26;100.00;60467.84;5072049;28;20500;-75
2021/12/24 03:47:14;;;;;;;56.50;25.00;;;;;;;-3.98;100.00;60387.44;5071933;28;20454;-75
2021/12/24 03:49:54;;;;;;;63.07;25.07;;;;;;;-5.01;100.00;60274.97;5071798;28;20478;-74
2021/12/24 03:52:51;;;;;;;129.43;37.23;;;;;;;-3.36;100.00;60455.34;5072353;28;20860;-76
2021/12/24 03:55:19;;;;;;;96.90;29.77;;;;;;;-3.76;100.00;60416.13;5071720;28;20541;-75
2021/12/24 03:57:46;;;;;;;80.65;28.33;;;;;;;-3.49;100.00;60439.13;5071532;28;20446;-75
2021/12/24 04:00:29;;;;;;;137.93;40.70;;;;;;;-4.09;100.00;60380.78;5071540;28;20737;-72
2021/12/24 04:03:08;;;;;;;70.40;27.02;;;;;;;-3.58;100.00;60434.59;5072032;28;20192;-74
2021/12/24 04:05:40;;;;;;;72.47;26.53;;;;;;;-4.79;100.00;60305.59;5072014;28;20201;-75
2021/12/24 04:08:09;;;;;;;70.93;26.08;;;;;;;-3.55;100.00;60432.78;5072220;28;20434;-73
2021/12/24 04:10:41;;;;;;;66.40;25.77;;;;;;;-4.57;100.00;60321.31;5071642;28;20710;-75
2021/12/24 04:13:12;;;;;;;48.70;22.43;;;;;;;-4.99;100.00;60286.47;5072244;28;20992;-73
2021/12/24 04:15:43;;;;;;;62.78;23.17;;;;;;;-3.45;100.00;60448.31;5072239;28;20439;-76
2021/12/24 04:18:33;;;;;;;55.13;24.77;;;;;;;-3.59;100.00;60426.06;5072103;28;20671;-74
2021/12/24 04:26:39;;;;;;;49.20;20.90;;;;;;;-3.50;100.00;60443.06;5071798;28;20203;-75
2021/12/24 04:29:11;;;;;;;51.33;20.23;;;;;;;-3.30;100.00;60461.66;5071524;28;20482;-74
2021/12/24 04:31:46;;;;;;;48.03;20.43;;;;;;;-4.85;100.00;60301.75;5071671;28;20670;-74
2021/12/24 04:34:16;;;;;;;46.93;20.37;;;;;;;-3.43;100.00;60450.44;5071970;28;20473;-74
2021/12/24 04:37:10;;;;;;;42.63;19.90;;;;;;;-5.49;100.00;60239.28;5071704;28;20549;-74
2021/12/24 04:39:48;;;;;;;43.13;19.20;;;;;;;-3.49;100.00;60439.13;5071394;28;20472;-73
2021/12/24 05:01:48;;;;;;;45.67;21.10;;;;;;;-3.34;100.00;60459.94;5075727;28;20429;-75
2021/12/24 05:04:25;;;;;;;53.23;22.93;;;;;;;-3.20;100.00;60472.22;5082740;28;20519;-73
2021/12/24 05:07:03;;;;;;;58.58;25.50;;;;;;;-3.92;100.00;60406.19;5075259;28;20449;-75
2021/12/24 05:09:41;;;;;;;55.63;24.08;;;;;;;-4.28;100.00;60364.31;5075353;28;20322;-77
2021/12/24 05:12:16;;;;;;;50.50;19.90;;;;;;;-3.31;100.00;60463.09;5073906;28;20682;-73
2021/12/24 05:14:44;;;;;;;39.17;18.83;;;;;;;-3.94;100.00;60399.13;5075349;28;20204;-73
2021/12/24 05:17:25;;;;;;;40.10;18.10;;;;;;;-4.66;100.00;60321.22;5074904;28;20511;-73
2021/12/24 05:22:36;;;;;;;34.90;16.15;;;;;;;-3.58;100.00;60434.59;5075131;28;20426;-77
2021/12/24 05:25:04;;;;;;;40.38;16.70;;;;;;;-3.54;100.00;60443.81;5075033;28;20266;-73
2021/12/24 05:27:44;;;;;;;35.08;16.55;;;;;;;-3.46;100.00;60442.28;5074875;28;20200;-73
2021/12/24 05:30:14;;;;;;;38.03;16.33;;;;;;;-3.37;100.00;60456.22;5075050;28;20318;-75
2021/12/24 05:32:44;;;;;;;36.57;16.70;;;;;;;-3.51;100.00;60437.00;5075142;28;20443;-74
2021/12/24 05:35:13;;;;;;;35.10;16.27;;;;;;;-4.83;100.00;60303.84;5075251;28;20523;-76
2021/12/24 05:37:44;;;;;;;39.30;17.77;;;;;;;-5.21;100.00;60261.34;5074561;28;20961;-75
2021/12/24 05:40:12;;;;;;;34.60;16.30;;;;;;;-3.47;100.00;60444.25;5074554;28;20520;-75
2021/12/24 05:42:40;;;;;;;38.97;17.70;;;;;;;-3.48;100.00;60442.66;5074590;28;21079;-74
2021/12/24 05:45:11;;;;;;;37.95;16.98;;;;;;;-4.20;100.00;60366.72;5074607;28;20211;-73
2021/12/24 05:47:40;;;;;;;45.45;18.67;;;;;;;-3.29;100.00;60460.22;5073611;28;20204;-75
2021/12/24 05:50:10;;;;;;;36.73;16.33;;;;;;;-3.89;100.00;60396.91;5074310;28;20224;-73
2021/12/24 05:52:38;;;;;;;38.27;17.40;;;;;;;-3.14;100.00;60478.56;5074689;28;20443;-74
2021/12/24 05:55:06;;;;;;;35.90;18.00;;;;;;;-3.71;100.00;60415.91;5072733;28;20461;-74
2021/12/24 05:57:35;;;;;;;39.10;18.55;;;;;;;-3.57;100.00;60436.19;5074269;28;20496;-74
2021/12/24 06:00:06;;;;;;;49.30;20.42;;;;;;;-3.03;100.00;60487.66;5074159;28;20201;-76
2021/12/24 06:02:34;;;;;;;45.58;19.55;;;;;;;-2.92;100.00;60501.78;5074395;28;20254;-73
2021/12/24 06:05:01;;;;;;;50.60;20.23;;;;;;;-4.72;100.00;60319.88;5074284;28;20192;-74
2021/12/24 06:07:30;;;;;;;41.17;19.63;;;;;;;-3.90;100.00;60403.34;5074223;28;20442;-75
2021/12/24 06:10:03;;;;;;;44.93;20.47;;;;;;;-3.08;100.00;60484.88;5073639;28;20494;-73
2021/12/24 06:12:32;;;;;;;55.22;20.23;;;;;;;-3.30;100.00;60459.19;5073752;28;20447;-73
2021/12/24 06:15:03;;;;;;;44.23;19.80;;;;;;;-3.41;100.00;60452.53;5072420;28;21054;-74
2021/12/24 06:17:33;;;;;;;41.93;18.93;;;;;;;-3.22;100.00;60467.09;5073553;28;20454;-74
2021/12/24 06:20:00;;;;;;;49.17;19.23;;;;;;;-2.75;100.00;60517.25;5073589;28;20968;-74
2021/12/24 06:22:28;;;;;;;81.07;26.80;;;;;;;-3.89;100.00;60401.88;5073599;28;20492;-73
2021/12/24 06:24:55;;;;;;;54.63;22.80;;;;;;;-2.34;100.00;60559.50;5073189;28;20458;-76
2021/12/24 06:27:23;;;;;;;43.27;18.13;;;;;;;-1.84;100.00;60612.34;5072432;28;20918;-75
2021/12/24 06:29:50;;;;;;;48.23;21.23;;;;;;;-1.51;100.00;60652.22;5073317;28;20478;-75
2021/12/24 06:32:18;;;;;;;43.17;18.70;;;;;;;-1.00;100.00;60701.19;5073574;28;20454;-74
2021/12/24 06:34:48;;;;;;;37.50;19.13;;;;;;;-0.40;100.00;60763.66;5073918;28;20532;-72
2021/12/24 06:37:16;;;;;;;40.93;18.60;;;;;;;-0.31;100.00;60776.19;5073834;28;20528;-74
2021/12/24 06:39:45;;;;;;;42.37;19.93;;;;;;;0.17;100.00;60824.00;5073309;28;20523;-73
2021/12/24 06:42:12;;;;;;;49.13;22.70;;;;;;;-0.42;100.00;60764.03;5073760;28;20435;-72
2021/12/24 06:44:41;;;;;;;56.83;24.17;;;;;;;-1.89;100.00;60607.06;5072976;28;20542;-75
2021/12/24 06:47:09;;;;;;;56.47;25.47;;;;;;;-0.38;100.00;60768.78;5072945;28;20447;-75
2021/12/24 06:49:36;;;;;;;57.07;23.87;;;;;;;-0.96;100.00;60707.91;5073357;28;20842;-74
2021/12/24 06:52:07;;;;;;;50.23;23.07;;;;;;;-0.97;100.00;60704.38;5073041;28;20438;-75
2021/12/24 06:54:35;;;;;;;49.20;23.47;;;;;;;-1.15;100.00;60685.31;5073064;28;20523;-75
2021/12/24 06:57:04;;;;;;;33.77;15.70;;;;;;;-0.69;100.00;60732.94;5072811;28;20899;-74
2021/12/24 06:59:32;;;;;;;43.17;20.93;;;;;;;-0.79;100.00;60722.34;5072899;28;20469;-74
2021/12/24 07:02:01;;;;;;;43.50;20.40;;;;;;;-0.76;100.00;60728.03;5073081;28;20439;-76
2021/12/24 07:04:29;;;;;;;50.73;24.17;;;;;;;-0.60;100.00;60742.47;5073105;28;20798;-76
2021/12/24 07:06:56;;;;;;;75.77;31.17;;;;;;;-0.71;100.00;60730.81;5072408;28;20454;-76
2021/12/24 07:09:26;;;;;;;78.13;33.13;;;;;;;-0.73;100.00;60733.69;5073136;28;20482;-75
2021/12/24 07:11:53;;;;;;;79.20;33.90;;;;;;;-0.89;100.00;60717.84;5078373;28;20451;-77
2021/12/24 07:14:22;;;;;;;77.87;33.53;;;;;;;-0.99;100.00;60702.25;5072750;28;20989;-75
2021/12/24 07:16:50;;;;;;;71.73;31.50;;;;;;;-2.15;100.00;60579.59;5072683;28;20481;-73
2021/12/24 07:19:18;;;;;;;71.33;31.10;;;;;;;-0.88;100.00;60708.88;5072561;28;20929;-76
2021/12/24 07:21:45;;;;;;;60.77;30.17;;;;;;;-1.00;100.00;60706.19;5070779;28;20497;-76
2021/12/24 07:24:14;;;;;;;65.77;29.20;;;;;;;-0.91;100.00;60710.72;5072652;28;20451;-74
2021/12/24 07:26:42;;;;;;;84.70;33.47;;;;;;;-1.09;100.00;60691.66;5072438;28;20442;-74
2021/12/24 07:29:09;;;;;;;60.60;27.80;;;;;;;-1.09;100.00;60691.66;5072503;28;20442;-75
2021/12/24 07:31:37;;;;;;;57.93;27.87;;;;;;;-1.04;100.00;60699.44;5071308;28;20442;-75
2021/12/24 07:34:05;;;;;;;60.97;28.53;;;;;;;-1.06;100.00;60699.31;5072479;28;20503;-74
2021/12/24 07:36:32;;;;;;;49.10;24.63;;;;;;;-1.25;100.00;60674.75;5073033;28;20442;-73
2021/12/24 07:38:59;;;;;;;61.03;25.70;;;;;;;-0.91;100.00;60710.19;5085580;28;20463;-73
2021/12/24 07:41:27;;;;;;;73.80;30.57;;;;;;;-0.94;100.00;60710.03;5088570;28;20454;-74
2021/12/24 07:43:57;;;;;;;59.00;26.47;;;;;;;-1.07;100.00;60698.78;5082710;28;20447;-74
2021/12/24 07:46:31;;;;;;;52.87;23.80;;;;;;;-0.97;100.00;60704.38;5071557;28;20542;-73
2021/12/24 07:49:11;;;;;;;51.07;22.80;;;;;;;-2.34;100.00;60560.03;5071041;28;20477;-75
2021/12/24 07:52:01;;;;;;;45.80;21.00;;;;;;;-1.35;100.00;60664.16;5071073;28;20474;-72
2021/12/24 07:54:32;;;;;;;51.83;22.63;;;;;;;-2.07;100.00;60593.03;5072589;28;20524;-73
2021/12/24 07:57:00;;;;;;;46.33;20.70;;;;;;;-2.04;100.00;60596.19;5071960;28;20503;-77
2021/12/24 07:59:30;;;;;;;44.33;19.70;;;;;;;-0.93;100.00;60708.06;5071883;28;20447;-76
2021/12/24 08:01:59;;;;;;;44.40;20.50;;;;;;;-2.50;100.00;60542.59;5071655;28;20779;-76
2021/12/24 08:04:26;;;;;;;44.77;21.60;;;;;;;-0.49;100.00;60759.13;5071663;28;20438;-74
2021/12/24 08:06:53;;;;;;;48.43;22.80;;;;;;;-0.19;100.00;60785.88;5071637;28;20935;-74
2021/12/24 08:09:20;;;;;;;49.23;24.00;;;;;;;-1.07;100.00;60693.25;5071459;28;20449;-74
2021/12/24 08:11:47;;;;;;;37.17;18.13;;;;;;;0.26;100.00;60833.56;5071529;28;20439;-75
2021/12/24 08:14:18;;;;;;;44.17;18.70;;;;;;;-0.87;100.00;60714.94;5071459;28;20499;-76
2021/12/24 08:16:46;;;;;;;37.83;18.20;;;;;;;0.66;100.00;60875.41;5071430;28;20438;-74
2021/12/24 08:19:18;;;;;;;56.20;20.53;;;;;;;0.72;100.00;60884.81;5071879;28;20435;-75
2021/12/24 08:21:47;;;;;;;51.03;22.47;;;;;;;1.00;100.00;60915.94;5071472;28;20508;-75
2021/12/24 08:24:15;;;;;;;54.23;23.70;;;;;;;1.17;100.00;60931.47;5071560;28;20500;-75
2021/12/24 08:26:43;;;;;;;36.60;17.70;;;;;;;1.36;100.00;60949.66;5071329;28;20439;-75
2021/12/24 08:29:12;;;;;;;30.23;16.23;;;;;;;1.31;100.00;60948.84;5071153;28;20497;-74
2021/12/24 08:31:41;;;;;;;37.03;16.63;;;;;;;1.45;100.00;60961.72;5071673;28;20903;-75
2021/12/24 08:34:10;;;;;;;34.43;15.30;;;;;;;1.38;100.00;60951.78;5078061;28;20555;-74
2021/12/24 08:36:38;;;;;;;31.57;13.50;;;;;;;1.74;100.00;60989.44;5077998;28;20454;-75
2021/12/24 08:39:07;;;;;;;41.43;16.83;;;;;;;1.62;100.00;60979.22;5076562;28;20854;-73
2021/12/24 08:41:34;;;;;;;29.27;13.63;;;;;;;1.66;100.00;60980.97;5077722;28;20450;-74
2021/12/24 08:44:01;;;;;;;23.43;11.40;;;;;;;1.54;100.00;60973.25;5077809;28;21027;-73
2021/12/24 08:46:30;;;;;;;34.57;13.97;;;;;;;1.45;100.00;60959.19;5078221;28;20910;-76
2021/12/24 08:48:57;;;;;;;36.63;15.17;;;;;;;1.62;100.00;60981.72;5078164;28;20553;-77
2021/12/24 08:51:25;;;;;;;30.47;12.70;;;;;;;1.83;100.00;61000.97;5077665;28;20539;-74
2021/12/24 08:53:53;;;;;;;25.23;11.77;;;;;;;1.67;100.00;60984.53;5077551;28;20439;-74
2021/12/24 08:56:22;;;;;;;22.50;11.50;;;;;;;1.86;100.00;61009.19;5077860;28;20456;-75
2021/12/24 08:58:50;;;;;;;25.50;11.00;;;;;;;0.64;100.00;60878.84;5078349;28;20439;-72
2021/12/24 09:01:17;;;;;;;22.07;11.40;;;;;;;1.96;100.00;61012.25;5078166;28;20836;-75
2021/12/24 09:03:46;;;;;;;20.73;9.93;;;;;;;2.03;100.00;61015.22;5077965;28;20872;-77
2021/12/24 09:06:13;;;;;;;35.17;9.70;;;;;;;2.22;100.00;61042.38;5076686;28;20442;-75
2021/12/24 09:08:44;;;;;;;25.00;10.63;;;;;;;1.07;100.00;60926.41;5077915;28;20442;-73
2021/12/24 09:11:11;;;;;;;25.83;11.23;;;;;;;2.37;100.00;61058.84;5077938;28;20486;-74
2021/12/24 09:13:38;;;;;;;21.13;11.50;;;;;;;2.43;100.00;61060.19;5078196;28;20446;-73
2021/12/24 09:16:06;;;;;;;20.43;10.97;;;;;;;1.24;100.00;60933.88;5080407;28;20789;-72
2021/12/24 09:18:36;;;;;;;22.27;11.70;;;;;;;2.62;100.00;61086.88;5080378;28;20488;-74
2021/12/24 09:21:05;;;;;;;23.03;9.93;;;;;;;2.62;100.00;61084.34;5077968;28;20453;-72
2021/12/24 09:23:34;;;;;;;21.60;10.50;;;;;;;2.60;100.00;61079.72;5078215;28;20438;-75
2021/12/24 09:26:02;;;;;;;21.83;10.83;;;;;;;2.80;100.00;61106.00;5077787;28;20965;-75
2021/12/24 09:28:31;;;;;;;16.30;10.10;;;;;;;0.59;100.00;60873.53;5077639;28;20446;-76
2021/12/24 09:30:58;;;;;;;26.23;10.20;;;;;;;2.76;100.00;61099.75;5077366;28;20572;-74
2021/12/24 09:33:25;;;;;;;19.80;10.43;;;;;;;2.00;100.00;61016.50;5077735;28;20466;-73
2021/12/24 09:35:54;;;;;;;17.70;10.43;;;;;;;2.86;100.00;61112.38;5077310;28;20450;-76
2021/12/24 09:38:26;;;;;;;24.03;10.97;;;;;;;2.95;100.00;61121.91;5077304;28;20458;-74
2021/12/24 09:40:54;;;;;;;23.93;10.80;;;;;;;2.97;100.00;61121.53;5077470;28;20899;-74
2021/12/24 09:43:25;;;;;;;30.27;10.63;;;;;;;3.40;100.00;61167.25;5076846;28;20434;-74
2021/12/24 09:45:53;;;;;;;22.93;11.10;;;;;;;3.37;100.00;61161.53;5073825;28;20492;-76
2021/12/24 09:48:21;;;;;;;39.67;12.60;;;;;;;3.33;100.00;61160.34;5072925;28;20451;-73
2021/12/24 09:50:50;;;;;;;28.07;11.13;;;;;;;3.57;100.00;61187.84;5074082;28;20482;-76
2021/12/24 09:53:19;;;;;;;28.20;12.50;;;;;;;3.53;100.00;61178.56;5074100;28;20834;-76
2021/12/24 09:55:46;;;;;;;21.47;12.03;;;;;;;2.29;100.00;61050.38;5074153;28;20443;-76
2021/12/24 09:58:13;;;;;;;21.93;11.37;;;;;;;3.46;100.00;61170.56;5073900;28;20447;-75
2021/12/24 10:00:43;;;;;;;22.47;11.33;;;;;;;3.63;100.00;61189.19;5073757;28;20451;-73
2021/12/24 10:03:10;;;;;;;19.67;9.97;;;;;;;3.79;100.00;61206.19;5074058;28;20435;-73
2021/12/24 10:05:44;;;;;;;19.87;10.20;;;;;;;3.75;100.00;61206.44;5073589;28;20438;-75
2021/12/24 10:08:17;;;;;;;23.60;9.97;;;;;;;3.94;100.00;61224.69;5073916;28;20511;-75
2021/12/24 10:10:58;;;;;;;17.47;10.17;;;;;;;3.87;100.00;61219.75;5073695;28;20863;-74
2021/12/24 10:13:30;;;;;;;17.53;10.10;;;;;;;3.99;100.00;61230.00;5073587;28;20980;-74
2021/12/24 10:16:02;;;;;;;39.10;13.60;;;;;;;4.25;100.00;61255.16;5073539;28;20443;-75
2021/12/24 10:18:36;;;;;;;25.77;12.40;;;;;;;2.69;100.00;61091.78;5073868;28;20450;-75
2021/12/24 10:21:07;;;;;;;22.70;11.23;;;;;;;3.02;100.00;61119.31;5073358;28;20454;-77
2021/12/24 10:23:52;;;;;;;26.17;10.80;;;;;;;4.56;100.00;61284.56;5073513;28;20508;-74
2021/12/24 10:26:25;;;;;;;26.13;11.60;;;;;;;3.15;100.00;61136.16;5073080;28;21006;-74
2021/12/24 10:29:00;;;;;;;19.33;10.83;;;;;;;4.63;100.00;61297.06;5073610;28;20473;-76
2021/12/24 10:31:35;;;;;;;22.43;10.80;;;;;;;3.85;100.00;61215.09;5073199;28;20478;-73
2021/12/24 10:34:21;;;;;;;19.23;10.83;;;;;;;5.19;100.00;61354.19;5073164;28;20499;-73
2021/12/24 10:37:03;;;;;;;18.87;11.00;;;;;;;5.62;100.00;61405.03;5073701;28;20454;-76
2021/12/24 10:39:34;;;;;;;24.73;11.27;;;;;;;5.28;100.00;61363.75;5073057;28;20458;-74
2021/12/24 10:42:04;;;;;;;19.90;11.17;;;;;;;6.06;100.00;61448.38;5072902;28;20969;-74
2021/12/24 10:44:34;;;;;;;21.90;11.43;;;;;;;6.74;100.00;61518.91;5071630;28;20976;-77
2021/12/24 10:47:08;;;;;;;22.27;10.40;;;;;;;7.62;100.00;61611.78;5073333;28;20516;-76
2021/12/24 10:55:11;;;;;;;21.70;11.73;;;;;;;10.11;100.00;61877.03;5046275;28;20454;-73
2021/12/24 10:57:41;;;;;;;23.00;10.53;;;;;;;11.24;100.00;61993.91;5072433;28;20474;-76
2021/12/24 11:00:21;;;;;;;19.17;10.23;;;;;;;11.46;100.00;62022.59;5072416;28;20450;-74
2021/12/24 11:02:56;;;;;;;19.77;10.43;;;;;;;11.58;100.00;62035.47;5072429;28;20663;-75
2021/12/24 11:05:27;;;;;;;21.20;10.67;;;;;;;12.73;100.00;62158.88;5071157;28;20203;-76
2021/12/24 11:07:54;;;;;;;23.87;9.90;;;;;;;12.89;100.00;62172.44;5072519;28;20192;-73
2021/12/24 11:10:22;;;;;;;15.63;9.70;;;;;;;13.24;100.00;62210.03;5072258;28;20261;-74
2021/12/24 11:12:54;;;;;;;17.40;9.93;;;;;;;13.37;100.00;62229.09;5072409;28;20208;-73
2021/12/24 11:15:23;;;;;;;18.57;9.60;;;;;;;13.64;100.00;62253.00;5072368;28;20656;-74
2021/12/24 11:17:53;;;;;;;16.60;9.17;;;;;;;13.97;100.00;62288.47;5072908;28;20204;-72
2021/12/24 11:20:33;;;;;;;18.90;9.00;;;;;;;14.27;100.00;62323.28;5077561;28;20702;-75
2021/12/24 11:23:04;;;;;;;18.13;10.13;;;;;;;14.48;100.00;62342.22;5072229;28;20195;-74
2021/12/24 11:25:33;;;;;;;20.60;11.73;;;;;;;13.70;100.00;62256.91;5072743;28;20262;-75
2021/12/24 11:28:03;;;;;;;21.27;10.33;;;;;;;13.06;100.00;62190.72;5072218;28;20257;-75
2021/12/24 11:30:35;;;;;;;19.23;9.27;;;;;;;13.90;100.00;62283.50;5072128;28;20204;-74
2021/12/24 11:33:04;;;;;;;19.10;9.60;;;;;;;11.96;100.00;62073.69;5072242;28;20196;-76
2021/12/24 11:35:34;;;;;;;16.53;9.93;;;;;;;13.60;100.00;62248.72;5072718;28;20192;-74
2021/12/24 11:38:02;;;;;;;21.23;11.23;;;;;;;14.10;100.00;62301.91;5071777;28;20208;-76
2021/12/24 11:40:30;;;;;;;19.47;9.97;;;;;;;14.51;100.00;62348.03;5072240;28;20204;-75
2021/12/24 11:43:04;;;;;;;15.00;10.20;;;;;;;14.89;100.00;62388.91;5071893;28;20196;-76
2021/12/24 11:45:36;;;;;;;16.43;10.00;;;;;;;15.13;100.00;62412.69;5071920;28;20199;-75
2021/12/24 11:48:03;;;;;;;17.90;10.37;;;;;;;15.98;100.00;62508.81;5072287;28;20648;-75
2021/12/24 11:50:33;;;;;;;19.73;10.10;;;;;;;16.17;100.00;62528.75;5071169;28;20209;-74
2021/12/24 11:53:07;;;;;;;21.73;9.83;;;;;;;16.96;100.00;62608.22;5071536;28;20265;-75
2021/12/24 11:55:38;;;;;;;17.43;9.93;;;;;;;17.31;100.00;62645.94;5072077;28;20204;-77
2021/12/24 11:58:07;;;;;;;14.17;10.17;;;;;;;16.55;100.00;62564.56;5071797;28;20199;-74
2021/12/24 12:00:39;;;;;;;18.03;9.93;;;;;;;16.82;100.00;62595.69;5071466;28;20663;-74
2021/12/24 12:03:08;;;;;;;14.03;9.33;;;;;;;16.64;100.00;62578.88;5071425;28;21077;-74
2021/12/24 12:05:38;;;;;;;15.67;8.23;;;;;;;18.17;100.00;62740.75;5071573;28;20737;-74
2021/12/24 12:08:33;;;;;;;13.90;8.03;;;;;;;18.71;96.52;62801.13;5071332;28;20222;-75
2021/12/24 12:11:02;;;;;;;13.73;8.50;;;;;;;19.32;89.91;62861.81;5071563;28;20228;-74
2021/12/24 12:13:53;;;;;;;17.37;8.33;;;;;;;19.96;82.60;62935.09;5071745;28;20268;-77
2021/12/24 12:16:22;;;;;;;14.67;7.80;;;;;;;20.69;74.87;63008.88;5071810;28;20204;-74
2021/12/24 12:19:04;;;;;;;11.63;7.37;;;;;;;21.92;67.92;63140.94;5071481;28;20208;-73
2021/12/24 12:21:40;;;;;;;9.97;7.13;;;;;;;22.43;61.10;63196.19;5071666;28;20687;-77
2021/12/24 12:27:18;;;;;;;13.87;6.93;;;;;;;24.06;52.50;63371.31;5071665;28;20702;-74
2021/12/24 12:29:48;;;;;;;13.47;8.93;;;;;;;23.46;50.88;63306.78;5071840;28;20206;-74
2021/12/24 12:32:40;;;;;;;16.60;10.47;;;;;;;23.14;51.23;63269.47;5071365;28;20232;-75
2021/12/24 12:35:10;;;;;;;18.40;10.90;;;;;;;22.06;53.75;63156.09;5071129;28;20331;-75
2021/12/24 12:37:50;;;;;;;16.47;10.37;;;;;;;22.46;52.55;63202.03;5071179;28;20196;-77
2021/12/24 12:40:36;;;;;;;15.63;9.07;;;;;;;19.84;56.01;62919.53;5071511;28;20212;-73
2021/12/24 12:46:01;;;;;;;18.20;10.87;;;;;;;21.28;57.14;63071.63;5071306;28;20667;-75
2021/12/24 12:48:44;;;;;;;18.47;12.30;;;;;;;19.91;57.27;62924.50;5071349;28;20206;-76